sensor_id;sensor_type;location;lat;lon;timestamp;pressure;altitude;pressure_sealevel;temperature;humidity
4346;BME280;2186;49.866;7.986;2024-01-27T00:00:12;102128.28;;;4.33;89.35
4346;BME280;2186;49.866;7.986;2024-01-27T00:02:40;102136.41;;;4.41;89.25
4346;BME280;2186;49.866;7.986;2024-01-27T00:05:08;102134.66;;;4.41;88.98
4346;BME280;2186;49.866;7.986;2024-01-27T00:07:35;102128.91;;;4.25;88.41
4346;BME280;2186;49.866;7.986;2024-01-27T00:10:02;102133.66;;;4.38;88.87
4346;BME280;2186;49.866;7.986;2024-01-27T00:12:28;102130.59;;;4.21;89.96
4346;BME280;2186;49.866;7.986;2024-01-27T00:14:55;102132.91;;;4.42;89.93
4346;BME280;2186;49.866;7.986;2024-01-27T00:17:21;102126.84;;;4.44;89.49
4346;BME280;2186;49.866;7.986;2024-01-27T00:19:54;102135.97;;;4.59;88.98
4346;BME280;2186;49.866;7.986;2024-01-27T00:22:20;102136.72;;;4.53;89.14
4346;BME280;2186;49.866;7.986;2024-01-27T00:24:47;102133.81;;;4.11;89.98
4346;BME280;2186;49.866;7.986;2024-01-27T00:27:14;102136.59;;;4.49;89.93
4346;BME280;2186;49.866;7.986;2024-01-27T00:29:40;102137.63;;;4.54;88.92
4346;BME280;2186;49.866;7.986;2024-01-27T00:32:07;102136.22;;;4.35;89.32
4346;BME280;2186;49.866;7.986;2024-01-27T00:34:33;102140.06;;;4.14;89.18
4346;BME280;2186;49.866;7.986;2024-01-27T00:37:00;102140.31;;;3.92;90.52
4346;BME280;2186;49.866;7.986;2024-01-27T00:39:26;102146.34;;;4.20;89.79
4346;BME280;2186;49.866;7.986;2024-01-27T00:41:53;102149.72;;;4.14;90.15
4346;BME280;2186;49.866;7.986;2024-01-27T00:44:21;102149.06;;;3.91;89.45
4346;BME280;2186;49.866;7.986;2024-01-27T00:46:47;102149.25;;;3.69;90.84
4346;BME280;2186;49.866;7.986;2024-01-27T00:49:14;102149.16;;;3.64;91.05
4346;BME280;2186;49.866;7.986;2024-01-27T00:51:41;102140.38;;;3.64;91.40
4346;BME280;2186;49.866;7.986;2024-01-27T00:54:07;102140.44;;;3.37;91.71
4346;BME280;2186;49.866;7.986;2024-01-27T00:56:34;102146.56;;;3.37;91.00
4346;BME280;2186;49.866;7.986;2024-01-27T00:59:00;102146.41;;;3.31;90.84
4346;BME280;2186;49.866;7.986;2024-01-27T01:01:27;102146.22;;;3.26;91.08
4346;BME280;2186;49.866;7.986;2024-01-27T01:03:53;102144.81;;;3.09;90.36
4346;BME280;2186;49.866;7.986;2024-01-27T01:06:20;102143.13;;;3.11;90.71
4346;BME280;2186;49.866;7.986;2024-01-27T01:08:46;102147.31;;;3.05;90.89
4346;BME280;2186;49.866;7.986;2024-01-27T01:11:13;102151.78;;;3.07;91.73
4346;BME280;2186;49.866;7.986;2024-01-27T01:13:41;102157.88;;;3.06;92.01
4346;BME280;2186;49.866;7.986;2024-01-27T01:16:07;102166.69;;;2.81;91.53
4346;BME280;2186;49.866;7.986;2024-01-27T01:18:34;102163.84;;;2.75;91.08
4346;BME280;2186;49.866;7.986;2024-01-27T01:21:01;102160.59;;;2.57;91.34
4346;BME280;2186;49.866;7.986;2024-01-27T01:23:27;102164.75;;;2.50;91.59
4346;BME280;2186;49.866;7.986;2024-01-27T01:25:54;102162.31;;;2.56;91.99
4346;BME280;2186;49.866;7.986;2024-01-27T01:28:20;102160.03;;;2.65;91.42
4346;BME280;2186;49.866;7.986;2024-01-27T01:30:47;102168.94;;;2.71;92.29
4346;BME280;2186;49.866;7.986;2024-01-27T01:33:13;102175.44;;;2.56;91.98
4346;BME280;2186;49.866;7.986;2024-01-27T01:35:40;102178.38;;;2.40;92.65
4346;BME280;2186;49.866;7.986;2024-01-27T01:38:07;102182.53;;;2.33;92.17
4346;BME280;2186;49.866;7.986;2024-01-27T01:40:33;102180.56;;;2.28;92.44
4346;BME280;2186;49.866;7.986;2024-01-27T01:43:00;102177.34;;;2.35;91.78
4346;BME280;2186;49.866;7.986;2024-01-27T01:45:26;102184.44;;;2.37;91.54
4346;BME280;2186;49.866;7.986;2024-01-27T01:47:53;102190.06;;;2.24;92.00
4346;BME280;2186;49.866;7.986;2024-01-27T01:50:20;102191.41;;;2.13;91.85
4346;BME280;2186;49.866;7.986;2024-01-27T01:52:48;102197.38;;;2.09;91.75
4346;BME280;2186;49.866;7.986;2024-01-27T01:55:15;102197.03;;;2.00;92.84
4346;BME280;2186;49.866;7.986;2024-01-27T01:57:43;102202.72;;;1.88;92.82
4346;BME280;2186;49.866;7.986;2024-01-27T02:00:10;102188.66;;;1.86;92.75
4346;BME280;2186;49.866;7.986;2024-01-27T02:02:37;102182.00;;;1.94;92.13
4346;BME280;2186;49.866;7.986;2024-01-27T02:05:04;102186.13;;;2.12;92.03
4346;BME280;2186;49.866;7.986;2024-01-27T02:07:31;102191.13;;;2.05;91.75
4346;BME280;2186;49.866;7.986;2024-01-27T02:09:57;102205.44;;;1.91;92.36
4346;BME280;2186;49.866;7.986;2024-01-27T02:12:24;102202.91;;;1.70;91.60
4346;BME280;2186;49.866;7.986;2024-01-27T02:14:50;102204.19;;;1.80;92.37
4346;BME280;2186;49.866;7.986;2024-01-27T02:17:17;102213.41;;;1.70;92.64
4346;BME280;2186;49.866;7.986;2024-01-27T02:19:43;102222.94;;;1.68;92.64
4346;BME280;2186;49.866;7.986;2024-01-27T02:22:10;102215.88;;;1.66;92.69
4346;BME280;2186;49.866;7.986;2024-01-27T02:24:37;102214.13;;;1.66;92.73
4346;BME280;2186;49.866;7.986;2024-01-27T02:27:03;102212.81;;;1.55;92.61
4346;BME280;2186;49.866;7.986;2024-01-27T02:29:30;102207.56;;;1.55;92.25
4346;BME280;2186;49.866;7.986;2024-01-27T02:31:56;102213.03;;;1.61;93.08
4346;BME280;2186;49.866;7.986;2024-01-27T02:34:23;102209.03;;;1.48;92.17
4346;BME280;2186;49.866;7.986;2024-01-27T02:36:49;102209.88;;;1.47;92.58
4346;BME280;2186;49.866;7.986;2024-01-27T02:39:16;102212.44;;;1.46;94.00
4346;BME280;2186;49.866;7.986;2024-01-27T02:41:42;102214.53;;;1.55;92.99
4346;BME280;2186;49.866;7.986;2024-01-27T02:44:09;102223.47;;;1.37;91.99
4346;BME280;2186;49.866;7.986;2024-01-27T02:46:35;102220.13;;;1.41;91.75
4346;BME280;2186;49.866;7.986;2024-01-27T02:49:02;102213.72;;;1.56;92.75
4346;BME280;2186;49.866;7.986;2024-01-27T02:51:28;102216.97;;;1.50;92.65
4346;BME280;2186;49.866;7.986;2024-01-27T02:53:55;102225.06;;;1.34;92.07
4346;BME280;2186;49.866;7.986;2024-01-27T02:56:21;102233.97;;;1.37;92.67
4346;BME280;2186;49.866;7.986;2024-01-27T02:58:48;102231.44;;;1.40;93.13
4346;BME280;2186;49.866;7.986;2024-01-27T03:01:14;102239.25;;;1.39;93.11
4346;BME280;2186;49.866;7.986;2024-01-27T03:03:41;102239.88;;;1.33;92.58
4346;BME280;2186;49.866;7.986;2024-01-27T03:06:08;102239.09;;;1.36;93.13
4346;BME280;2186;49.866;7.986;2024-01-27T03:08:34;102238.81;;;1.28;92.83
4346;BME280;2186;49.866;7.986;2024-01-27T03:11:01;102228.72;;;1.16;92.51
4346;BME280;2186;49.866;7.986;2024-01-27T03:13:27;102236.47;;;1.13;93.50
4346;BME280;2186;49.866;7.986;2024-01-27T03:15:54;102232.94;;;1.13;93.55
4346;BME280;2186;49.866;7.986;2024-01-27T03:18:22;102232.94;;;1.13;93.39
4346;BME280;2186;49.866;7.986;2024-01-27T03:20:48;102225.09;;;1.13;93.25
4346;BME280;2186;49.866;7.986;2024-01-27T03:23:15;102238.44;;;1.19;93.28
4346;BME280;2186;49.866;7.986;2024-01-27T03:25:41;102230.22;;;1.10;92.94
4346;BME280;2186;49.866;7.986;2024-01-27T03:28:08;102235.91;;;1.22;93.60
4346;BME280;2186;49.866;7.986;2024-01-27T03:30:34;102234.97;;;1.20;93.27
4346;BME280;2186;49.866;7.986;2024-01-27T03:33:01;102235.34;;;1.29;93.35
4346;BME280;2186;49.866;7.986;2024-01-27T03:35:27;102240.72;;;1.32;94.01
4346;BME280;2186;49.866;7.986;2024-01-27T03:37:54;102244.69;;;1.02;92.25
4346;BME280;2186;49.866;7.986;2024-01-27T03:40:20;102242.75;;;0.96;92.93
4346;BME280;2186;49.866;7.986;2024-01-27T03:42:47;102239.47;;;1.02;92.74
4346;BME280;2186;49.866;7.986;2024-01-27T03:45:13;102241.06;;;0.98;93.23
4346;BME280;2186;49.866;7.986;2024-01-27T03:47:40;102244.13;;;0.88;92.69
4346;BME280;2186;49.866;7.986;2024-01-27T03:50:07;102247.50;;;0.85;93.59
4346;BME280;2186;49.866;7.986;2024-01-27T03:52:34;102247.50;;;0.85;92.96
4346;BME280;2186;49.866;7.986;2024-01-27T03:55:01;102249.84;;;0.79;92.73
4346;BME280;2186;49.866;7.986;2024-01-27T03:57:27;102247.69;;;0.90;93.19
4346;BME280;2186;49.866;7.986;2024-01-27T03:59:54;102249.47;;;0.91;93.92
4346;BME280;2186;49.866;7.986;2024-01-27T04:02:20;102251.09;;;0.87;93.43
4346;BME280;2186;49.866;7.986;2024-01-27T04:04:47;102256.44;;;0.91;94.04
4346;BME280;2186;49.866;7.986;2024-01-27T04:07:13;102258.53;;;0.78;94.25
4346;BME280;2186;49.866;7.986;2024-01-27T04:09:40;102265.91;;;0.87;94.81
4346;BME280;2186;49.866;7.986;2024-01-27T04:12:07;102272.31;;;0.74;94.18
4346;BME280;2186;49.866;7.986;2024-01-27T04:14:33;102266.91;;;0.70;94.32
4346;BME280;2186;49.866;7.986;2024-01-27T04:17:00;102260.63;;;0.66;93.65
4346;BME280;2186;49.866;7.986;2024-01-27T04:19:26;102268.03;;;0.76;93.63
4346;BME280;2186;49.866;7.986;2024-01-27T04:21:53;102268.41;;;0.65;92.71
4346;BME280;2186;49.866;7.986;2024-01-27T04:24:19;102275.59;;;0.69;93.63
4346;BME280;2186;49.866;7.986;2024-01-27T04:26:45;102277.38;;;0.70;93.23
4346;BME280;2186;49.866;7.986;2024-01-27T04:29:12;102274.41;;;0.62;92.84
4346;BME280;2186;49.866;7.986;2024-01-27T04:31:41;102273.25;;;0.55;93.50
4346;BME280;2186;49.866;7.986;2024-01-27T04:34:08;102280.22;;;0.55;93.45
4346;BME280;2186;49.866;7.986;2024-01-27T04:36:35;102276.59;;;0.53;93.23
4346;BME280;2186;49.866;7.986;2024-01-27T04:39:01;102276.00;;;0.58;93.35
4346;BME280;2186;49.866;7.986;2024-01-27T04:41:28;102268.53;;;0.68;93.69
4346;BME280;2186;49.866;7.986;2024-01-27T04:43:55;102266.72;;;0.46;93.86
4346;BME280;2186;49.866;7.986;2024-01-27T04:46:22;102270.16;;;0.45;93.05
4346;BME280;2186;49.866;7.986;2024-01-27T04:48:49;102274.75;;;0.50;93.29
4346;BME280;2186;49.866;7.986;2024-01-27T04:51:16;102266.56;;;0.62;93.46
4346;BME280;2186;49.866;7.986;2024-01-27T04:53:42;102267.94;;;0.35;92.86
4346;BME280;2186;49.866;7.986;2024-01-27T04:56:09;102271.00;;;0.44;93.69
4346;BME280;2186;49.866;7.986;2024-01-27T04:58:36;102275.88;;;0.36;93.60
4346;BME280;2186;49.866;7.986;2024-01-27T05:01:03;102264.63;;;0.39;92.96
4346;BME280;2186;49.866;7.986;2024-01-27T05:03:29;102262.84;;;0.38;93.69
4346;BME280;2186;49.866;7.986;2024-01-27T05:05:56;102257.75;;;0.41;93.66
4346;BME280;2186;49.866;7.986;2024-01-27T05:08:22;102262.44;;;0.48;92.77
4346;BME280;2186;49.866;7.986;2024-01-27T05:10:49;102268.03;;;0.36;93.36
4346;BME280;2186;49.866;7.986;2024-01-27T05:13:15;102269.19;;;0.43;93.38
4346;BME280;2186;49.866;7.986;2024-01-27T05:15:42;102268.44;;;0.45;93.42
4346;BME280;2186;49.866;7.986;2024-01-27T05:18:08;102280.00;;;0.31;94.13
4346;BME280;2186;49.866;7.986;2024-01-27T05:20:36;102283.09;;;0.22;94.27
4346;BME280;2186;49.866;7.986;2024-01-27T05:23:03;102283.44;;;0.30;93.91
4346;BME280;2186;49.866;7.986;2024-01-27T05:25:30;102283.50;;;0.32;94.05
4346;BME280;2186;49.866;7.986;2024-01-27T05:27:56;102289.44;;;0.47;93.18
4346;BME280;2186;49.866;7.986;2024-01-27T05:30:23;102296.50;;;0.49;93.35
4346;BME280;2186;49.866;7.986;2024-01-27T05:32:49;102297.34;;;0.48;92.88
4346;BME280;2186;49.866;7.986;2024-01-27T05:35:16;102288.84;;;0.54;93.41
4346;BME280;2186;49.866;7.986;2024-01-27T05:37:42;102289.31;;;0.44;94.04
4346;BME280;2186;49.866;7.986;2024-01-27T05:40:09;102289.06;;;0.39;92.88
4346;BME280;2186;49.866;7.986;2024-01-27T05:42:37;102283.38;;;0.28;94.17
4346;BME280;2186;49.866;7.986;2024-01-27T05:45:04;102295.75;;;0.33;93.51
4346;BME280;2186;49.866;7.986;2024-01-27T05:47:30;102301.41;;;0.42;94.40
4346;BME280;2186;49.866;7.986;2024-01-27T05:49:57;102296.50;;;0.49;93.69
4346;BME280;2186;49.866;7.986;2024-01-27T05:52:23;102301.28;;;0.58;95.06
4346;BME280;2186;49.866;7.986;2024-01-27T05:54:52;102298.19;;;0.28;94.21
4346;BME280;2186;49.866;7.986;2024-01-27T05:57:19;102298.09;;;0.26;95.07
4346;BME280;2186;49.866;7.986;2024-01-27T05:59:46;102307.06;;;0.32;94.68
4346;BME280;2186;49.866;7.986;2024-01-27T06:02:13;102312.25;;;0.12;94.38
4346;BME280;2186;49.866;7.986;2024-01-27T06:04:39;102311.78;;;0.21;94.38
4346;BME280;2186;49.866;7.986;2024-01-27T06:07:06;102310.69;;;0.16;94.27
4346;BME280;2186;49.866;7.986;2024-01-27T06:09:32;102313.09;;;0.31;94.26
4346;BME280;2186;49.866;7.986;2024-01-27T06:11:59;102311.91;;;0.24;94.37
4346;BME280;2186;49.866;7.986;2024-01-27T06:14:27;102312.59;;;0.20;93.81
4346;BME280;2186;49.866;7.986;2024-01-27T06:16:53;102307.56;;;0.05;93.32
4346;BME280;2186;49.866;7.986;2024-01-27T06:19:19;102313.13;;;0.13;93.59
4346;BME280;2186;49.866;7.986;2024-01-27T06:21:46;102325.41;;;-0.04;93.47
4346;BME280;2186;49.866;7.986;2024-01-27T06:24:13;102316.66;;;-0.24;93.81
4346;BME280;2186;49.866;7.986;2024-01-27T06:26:39;102323.84;;;-0.01;93.59
4346;BME280;2186;49.866;7.986;2024-01-27T06:29:06;102321.19;;;-0.20;94.79
4346;BME280;2186;49.866;7.986;2024-01-27T06:31:32;102323.28;;;-0.13;93.90
4346;BME280;2186;49.866;7.986;2024-01-27T06:33:59;102326.25;;;-0.05;94.28
4346;BME280;2186;49.866;7.986;2024-01-27T06:36:25;102312.41;;;0.15;94.22
4346;BME280;2186;49.866;7.986;2024-01-27T06:38:53;102322.78;;;0.14;93.27
4346;BME280;2186;49.866;7.986;2024-01-27T06:41:20;102331.53;;;-0.04;93.50
4346;BME280;2186;49.866;7.986;2024-01-27T06:43:47;102333.50;;;-0.17;93.35
4346;BME280;2186;49.866;7.986;2024-01-27T06:46:13;102335.50;;;0.06;93.28
4346;BME280;2186;49.866;7.986;2024-01-27T06:48:40;102334.53;;;-0.14;92.65
4346;BME280;2186;49.866;7.986;2024-01-27T06:51:06;102327.03;;;-0.25;93.61
4346;BME280;2186;49.866;7.986;2024-01-27T06:53:33;102328.28;;;-0.17;93.90
4346;BME280;2186;49.866;7.986;2024-01-27T06:55:59;102334.16;;;-0.04;93.22
4346;BME280;2186;49.866;7.986;2024-01-27T06:58:26;102320.13;;;-0.06;93.44
4346;BME280;2186;49.866;7.986;2024-01-27T07:00:52;102326.94;;;-0.09;93.28
4346;BME280;2186;49.866;7.986;2024-01-27T07:03:19;102319.91;;;-0.10;94.75
4346;BME280;2186;49.866;7.986;2024-01-27T07:05:46;102320.78;;;0.08;95.22
4346;BME280;2186;49.866;7.986;2024-01-27T07:08:12;102323.97;;;0.20;93.66
4346;BME280;2186;49.866;7.986;2024-01-27T07:10:39;102323.50;;;-0.08;93.46
4346;BME280;2186;49.866;7.986;2024-01-27T07:13:05;102329.84;;;-0.21;94.28
4346;BME280;2186;49.866;7.986;2024-01-27T07:15:32;102332.22;;;-0.08;93.93
4346;BME280;2186;49.866;7.986;2024-01-27T07:17:59;102330.66;;;-0.04;93.83
4346;BME280;2186;49.866;7.986;2024-01-27T07:20:26;102332.41;;;-0.22;94.07
4346;BME280;2186;49.866;7.986;2024-01-27T07:22:52;102337.97;;;0.03;93.32
4346;BME280;2186;49.866;7.986;2024-01-27T07:25:19;102333.97;;;0.48;93.78
4346;BME280;2186;49.866;7.986;2024-01-27T07:27:45;102333.31;;;0.15;92.74
4346;BME280;2186;49.866;7.986;2024-01-27T07:30:14;102332.16;;;-0.09;92.41
4346;BME280;2186;49.866;7.986;2024-01-27T07:32:42;102337.06;;;-0.15;93.00
4346;BME280;2186;49.866;7.986;2024-01-27T07:35:10;102343.94;;;-0.17;93.50
4346;BME280;2186;49.866;7.986;2024-01-27T07:37:37;102342.75;;;-0.06;93.78
4346;BME280;2186;49.866;7.986;2024-01-27T07:40:05;102348.13;;;-0.03;94.73
4346;BME280;2186;49.866;7.986;2024-01-27T07:42:31;102350.56;;;-0.25;94.32
4346;BME280;2186;49.866;7.986;2024-01-27T07:44:58;102349.72;;;-0.24;95.10
4346;BME280;2186;49.866;7.986;2024-01-27T07:47:24;102337.53;;;-0.06;95.76
4346;BME280;2186;49.866;7.986;2024-01-27T07:49:51;102340.53;;;0.02;94.94
4346;BME280;2186;49.866;7.986;2024-01-27T07:52:19;102347.56;;;0.22;94.42
4346;BME280;2186;49.866;7.986;2024-01-27T07:54:46;102348.31;;;0.19;94.53
4346;BME280;2186;49.866;7.986;2024-01-27T07:57:12;102342.91;;;0.34;94.79
4346;BME280;2186;49.866;7.986;2024-01-27T07:59:39;102339.25;;;0.31;94.39
4346;BME280;2186;49.866;7.986;2024-01-27T08:02:05;102332.72;;;0.40;94.20
4346;BME280;2186;49.866;7.986;2024-01-27T08:04:32;102332.31;;;0.50;95.24
4346;BME280;2186;49.866;7.986;2024-01-27T08:06:58;102352.06;;;0.63;95.23
4346;BME280;2186;49.866;7.986;2024-01-27T08:09:25;102345.13;;;0.64;95.15
4346;BME280;2186;49.866;7.986;2024-01-27T08:11:51;102344.97;;;0.61;95.75
4346;BME280;2186;49.866;7.986;2024-01-27T08:14:19;102345.91;;;0.82;95.39
4346;BME280;2186;49.866;7.986;2024-01-27T08:16:46;102358.47;;;0.89;95.83
4346;BME280;2186;49.866;7.986;2024-01-27T08:19:13;102361.22;;;0.92;96.07
4346;BME280;2186;49.866;7.986;2024-01-27T08:21:41;102365.13;;;1.02;95.59
4346;BME280;2186;49.866;7.986;2024-01-27T08:24:07;102359.00;;;1.01;95.13
4346;BME280;2186;49.866;7.986;2024-01-27T08:26:33;102358.06;;;1.20;94.68
4346;BME280;2186;49.866;7.986;2024-01-27T08:29:00;102360.44;;;1.35;95.15
4346;BME280;2186;49.866;7.986;2024-01-27T08:31:26;102358.34;;;1.47;94.13
4346;BME280;2186;49.866;7.986;2024-01-27T08:33:53;102358.78;;;1.58;94.97
4346;BME280;2186;49.866;7.986;2024-01-27T08:36:20;102364.88;;;1.57;94.84
4346;BME280;2186;49.866;7.986;2024-01-27T08:38:46;102361.97;;;1.71;95.05
4346;BME280;2186;49.866;7.986;2024-01-27T08:41:12;102359.13;;;1.88;95.26
4346;BME280;2186;49.866;7.986;2024-01-27T08:43:39;102364.81;;;1.98;94.66
4346;BME280;2186;49.866;7.986;2024-01-27T08:46:05;102363.25;;;2.03;95.68
4346;BME280;2186;49.866;7.986;2024-01-27T08:48:33;102369.13;;;1.96;97.23
4346;BME280;2186;49.866;7.986;2024-01-27T08:51:00;102363.75;;;1.93;97.61
4346;BME280;2186;49.866;7.986;2024-01-27T08:53:27;102363.75;;;1.93;98.21
4346;BME280;2186;49.866;7.986;2024-01-27T08:55:53;102363.31;;;2.05;98.87
4346;BME280;2186;49.866;7.986;2024-01-27T08:58:20;102366.09;;;2.08;97.88
4346;BME280;2186;49.866;7.986;2024-01-27T09:00:46;102367.31;;;2.18;97.98
4346;BME280;2186;49.866;7.986;2024-01-27T09:03:13;102360.63;;;2.03;98.76
4346;BME280;2186;49.866;7.986;2024-01-27T09:05:40;102353.84;;;2.31;98.49
4346;BME280;2186;49.866;7.986;2024-01-27T09:08:10;102351.94;;;2.27;98.72
4346;BME280;2186;49.866;7.986;2024-01-27T09:10:36;102359.63;;;2.45;98.61
4346;BME280;2186;49.866;7.986;2024-01-27T09:13:04;102368.16;;;2.61;97.53
4346;BME280;2186;49.866;7.986;2024-01-27T09:15:31;102362.06;;;2.62;97.04
4346;BME280;2186;49.866;7.986;2024-01-27T09:17:57;102373.56;;;2.90;96.41
4346;BME280;2186;49.866;7.986;2024-01-27T09:20:24;102378.44;;;3.03;96.51
4346;BME280;2186;49.866;7.986;2024-01-27T09:22:50;102385.22;;;3.22;95.54
4346;BME280;2186;49.866;7.986;2024-01-27T09:25:17;102396.78;;;3.27;94.93
4346;BME280;2186;49.866;7.986;2024-01-27T09:27:43;102398.75;;;3.33;94.38
4346;BME280;2186;49.866;7.986;2024-01-27T09:30:10;102399.94;;;3.42;93.85
4346;BME280;2186;49.866;7.986;2024-01-27T09:32:37;102395.03;;;3.53;93.08
4346;BME280;2186;49.866;7.986;2024-01-27T09:35:04;102401.84;;;3.72;93.51
4346;BME280;2186;49.866;7.986;2024-01-27T09:37:30;102390.72;;;3.80;93.34
4346;BME280;2186;49.866;7.986;2024-01-27T09:39:58;102393.50;;;3.85;92.44
4346;BME280;2186;49.866;7.986;2024-01-27T09:42:27;102388.16;;;3.83;92.97
4346;BME280;2186;49.866;7.986;2024-01-27T09:44:56;102387.56;;;3.65;93.22
4346;BME280;2186;49.866;7.986;2024-01-27T09:47:22;102375.63;;;4.02;92.27
4346;BME280;2186;49.866;7.986;2024-01-27T09:49:50;102362.56;;;4.05;91.47
4346;BME280;2186;49.866;7.986;2024-01-27T09:52:17;102363.81;;;4.16;91.51
4346;BME280;2186;49.866;7.986;2024-01-27T09:54:44;102367.03;;;4.07;92.69
4346;BME280;2186;49.866;7.986;2024-01-27T09:57:11;102363.00;;;4.19;91.81
4346;BME280;2186;49.866;7.986;2024-01-27T09:59:40;102355.28;;;4.25;91.97
4346;BME280;2186;49.866;7.986;2024-01-27T10:02:11;102372.25;;;4.34;92.07
4346;BME280;2186;49.866;7.986;2024-01-27T10:04:41;102370.44;;;4.32;91.42
4346;BME280;2186;49.866;7.986;2024-01-27T10:07:08;102372.66;;;4.48;90.97
4346;BME280;2186;49.866;7.986;2024-01-27T10:09:35;102377.88;;;4.46;91.38
4346;BME280;2186;49.866;7.986;2024-01-27T10:12:02;102378.91;;;4.52;91.15
4346;BME280;2186;49.866;7.986;2024-01-27T10:14:41;102370.44;;;4.62;89.75
4346;BME280;2186;49.866;7.986;2024-01-27T10:17:11;102369.94;;;4.75;89.33
4346;BME280;2186;49.866;7.986;2024-01-27T10:19:38;102366.28;;;5.00;88.46
4346;BME280;2186;49.866;7.986;2024-01-27T10:22:10;102360.72;;;4.91;88.41
4346;BME280;2186;49.866;7.986;2024-01-27T10:24:37;102359.38;;;5.05;88.28
4346;BME280;2186;49.866;7.986;2024-01-27T10:27:04;102353.63;;;5.53;86.25
4346;BME280;2186;49.866;7.986;2024-01-27T10:29:31;102349.84;;;5.43;85.72
4346;BME280;2186;49.866;7.986;2024-01-27T10:32:08;102353.19;;;5.36;85.25
4346;BME280;2186;49.866;7.986;2024-01-27T10:34:35;102347.97;;;5.74;85.74
4346;BME280;2186;49.866;7.986;2024-01-27T10:37:01;102342.09;;;5.85;85.12
4346;BME280;2186;49.866;7.986;2024-01-27T10:39:28;102339.00;;;5.65;84.63
4346;BME280;2186;49.866;7.986;2024-01-27T10:41:54;102333.56;;;5.94;83.87
4346;BME280;2186;49.866;7.986;2024-01-27T10:44:21;102341.47;;;5.94;83.32
4346;BME280;2186;49.866;7.986;2024-01-27T10:46:49;102344.63;;;5.81;84.39
4346;BME280;2186;49.866;7.986;2024-01-27T10:49:17;102342.75;;;6.11;84.23
4346;BME280;2186;49.866;7.986;2024-01-27T10:51:53;102345.03;;;6.35;82.82
4346;BME280;2186;49.866;7.986;2024-01-27T10:54:26;102340.72;;;6.39;81.84
4346;BME280;2186;49.866;7.986;2024-01-27T10:56:55;102348.09;;;6.55;81.57
4346;BME280;2186;49.866;7.986;2024-01-27T10:59:22;102344.53;;;6.53;81.40
4346;BME280;2186;49.866;7.986;2024-01-27T11:01:52;102349.91;;;6.58;81.44
4346;BME280;2186;49.866;7.986;2024-01-27T11:04:20;102337.91;;;6.72;80.30
4346;BME280;2186;49.866;7.986;2024-01-27T11:06:48;102335.53;;;6.86;81.09
4346;BME280;2186;49.866;7.986;2024-01-27T11:09:15;102340.94;;;6.92;78.94
4346;BME280;2186;49.866;7.986;2024-01-27T11:11:42;102343.47;;;6.86;80.04
4346;BME280;2186;49.866;7.986;2024-01-27T11:14:09;102342.78;;;6.97;81.07
4346;BME280;2186;49.866;7.986;2024-01-27T11:16:36;102332.06;;;6.88;80.51
4346;BME280;2186;49.866;7.986;2024-01-27T11:19:10;102331.50;;;7.06;80.07
4346;BME280;2186;49.866;7.986;2024-01-27T11:21:38;102326.44;;;7.18;80.15
4346;BME280;2186;49.866;7.986;2024-01-27T11:24:17;102312.56;;;7.31;78.25
4346;BME280;2186;49.866;7.986;2024-01-27T11:26:45;102316.06;;;7.29;79.50
4346;BME280;2186;49.866;7.986;2024-01-27T11:29:11;102322.84;;;7.13;78.90
4346;BME280;2186;49.866;7.986;2024-01-27T11:31:48;102322.06;;;7.20;78.88
4346;BME280;2186;49.866;7.986;2024-01-27T11:34:17;102311.28;;;7.09;79.15
4346;BME280;2186;49.866;7.986;2024-01-27T11:36:44;102317.44;;;7.08;79.48
4346;BME280;2186;49.866;7.986;2024-01-27T11:41:52;102303.47;;;7.14;80.00
4346;BME280;2186;49.866;7.986;2024-01-27T11:44:19;102298.28;;;7.20;80.86
4346;BME280;2186;49.866;7.986;2024-01-27T11:46:47;102292.75;;;7.59;79.40
4346;BME280;2186;49.866;7.986;2024-01-27T11:49:17;102286.88;;;7.80;78.10
4346;BME280;2186;49.866;7.986;2024-01-27T11:51:44;102287.75;;;7.78;77.96
4346;BME280;2186;49.866;7.986;2024-01-27T11:54:11;102288.97;;;7.99;76.78
4346;BME280;2186;49.866;7.986;2024-01-27T11:56:38;102289.94;;;8.08;74.90
4346;BME280;2186;49.866;7.986;2024-01-27T11:59:04;102283.09;;;7.63;75.32
4346;BME280;2186;49.866;7.986;2024-01-27T12:01:31;102289.16;;;7.54;78.17
4346;BME280;2186;49.866;7.986;2024-01-27T12:03:57;102301.97;;;7.83;77.32
4346;BME280;2186;49.866;7.986;2024-01-27T12:06:24;102296.06;;;8.03;75.87
4346;BME280;2186;49.866;7.986;2024-01-27T12:08:53;102296.66;;;7.83;75.60
4346;BME280;2186;49.866;7.986;2024-01-27T12:11:20;102294.97;;;7.89;76.03
4346;BME280;2186;49.866;7.986;2024-01-27T12:13:51;102297.94;;;8.11;74.96
4346;BME280;2186;49.866;7.986;2024-01-27T12:16:19;102311.25;;;8.15;75.74
4346;BME280;2186;49.866;7.986;2024-01-27T12:18:46;102305.19;;;8.22;73.82
4346;BME280;2186;49.866;7.986;2024-01-27T12:21:18;102290.25;;;8.30;74.65
4346;BME280;2186;49.866;7.986;2024-01-27T12:23:52;102303.53;;;8.32;73.97
4346;BME280;2186;49.866;7.986;2024-01-27T12:26:26;102305.09;;;8.18;74.30
4346;BME280;2186;49.866;7.986;2024-01-27T12:28:54;102307.22;;;8.40;74.50
4346;BME280;2186;49.866;7.986;2024-01-27T12:31:23;102295.22;;;8.06;74.10
4346;BME280;2186;49.866;7.986;2024-01-27T12:36:20;102305.59;;;7.92;75.25
4346;BME280;2186;49.866;7.986;2024-01-27T12:38:52;102308.41;;;8.03;75.32
4346;BME280;2186;49.866;7.986;2024-01-27T12:41:19;102298.13;;;8.23;75.77
4346;BME280;2186;49.866;7.986;2024-01-27T12:43:46;102290.28;;;8.32;75.74
4346;BME280;2186;49.866;7.986;2024-01-27T12:46:12;102288.50;;;8.32;74.34
4346;BME280;2186;49.866;7.986;2024-01-27T12:48:41;102287.28;;;8.74;73.66
4346;BME280;2186;49.866;7.986;2024-01-27T12:51:07;102289.59;;;8.47;73.19
4346;BME280;2186;49.866;7.986;2024-01-27T12:53:39;102287.94;;;8.55;72.83
4346;BME280;2186;49.866;7.986;2024-01-27T12:56:08;102284.28;;;8.44;71.79
4346;BME280;2186;49.866;7.986;2024-01-27T12:58:35;102282.59;;;8.50;70.44
4346;BME280;2186;49.866;7.986;2024-01-27T13:01:02;102283.56;;;8.57;69.54
4346;BME280;2186;49.866;7.986;2024-01-27T13:03:29;102274.91;;;8.73;70.67
4346;BME280;2186;49.866;7.986;2024-01-27T13:05:56;102267.81;;;8.72;68.48
4346;BME280;2186;49.866;7.986;2024-01-27T13:08:23;102264.38;;;8.81;68.26
4346;BME280;2186;49.866;7.986;2024-01-27T13:10:51;102259.06;;;8.78;68.53
4346;BME280;2186;49.866;7.986;2024-01-27T13:13:17;102246.78;;;8.90;67.75
4346;BME280;2186;49.866;7.986;2024-01-27T13:15:44;102258.63;;;9.25;67.10
4346;BME280;2186;49.866;7.986;2024-01-27T13:18:11;102256.53;;;8.17;69.46
4346;BME280;2186;49.866;7.986;2024-01-27T13:20:38;102249.97;;;8.56;68.41
4346;BME280;2186;49.866;7.986;2024-01-27T13:23:06;102243.81;;;8.58;69.75